createdAt,value
2019-06-26T00:02:47.798Z,24.1
2019-06-26T00:05:54.036Z,24.1
2019-06-26T00:09:00.239Z,24.1
2019-06-26T00:12:06.615Z,24.1
2019-06-26T00:15:12.879Z,24.1
2019-06-26T00:18:19.192Z,24.1
2019-06-26T00:21:25.293Z,24.1
2019-06-26T00:24:31.514Z,24.1
2019-06-26T00:27:37.655Z,24.1
2019-06-26T00:30:44.045Z,24.1
2019-06-26T00:33:50.398Z,24.1
2019-06-26T00:36:56.603Z,24
2019-06-26T00:40:02.770Z,24
2019-06-26T00:43:08.945Z,24
2019-06-26T00:46:15.146Z,24
2019-06-26T00:49:21.315Z,24
2019-06-26T00:52:27.574Z,24
2019-06-26T00:55:33.753Z,24
2019-06-26T00:58:40.159Z,24
2019-06-26T01:01:46.345Z,23.9
2019-06-26T01:04:55.677Z,24
2019-06-26T01:08:01.962Z,23.9
2019-06-26T01:11:08.189Z,24
2019-06-26T01:14:14.453Z,23.9
2019-06-26T01:17:20.581Z,23.9
2019-06-26T01:20:26.776Z,23.9
2019-06-26T01:23:32.913Z,23.9
2019-06-26T01:26:39.080Z,23.9
2019-06-26T01:29:45.284Z,23.9
2019-06-26T01:32:54.280Z,23.9
2019-06-26T01:36:00.628Z,23.9
2019-06-26T01:39:06.878Z,23.8
2019-06-26T01:42:13.073Z,23.9
2019-06-26T01:45:19.230Z,23.8
2019-06-26T01:48:25.398Z,23.8
2019-06-26T01:51:31.592Z,23.8
2019-06-26T01:54:37.719Z,23.8
2019-06-26T01:57:43.921Z,23.8
2019-06-26T02:00:50.040Z,23.8
2019-06-26T02:03:56.236Z,23.8
2019-06-26T02:07:02.500Z,23.8
2019-06-26T02:10:08.790Z,23.8
2019-06-26T02:13:14.966Z,23.8
2019-06-26T02:16:21.250Z,23.8
2019-06-26T02:19:27.523Z,23.8
2019-06-26T02:22:33.718Z,23.7
2019-06-26T02:25:39.996Z,23.7
2019-06-26T02:28:46.167Z,23.7
2019-06-26T02:31:52.403Z,23.7
2019-06-26T02:34:58.745Z,23.7
2019-06-26T02:38:05.098Z,23.7
2019-06-26T02:41:11.329Z,23.7
2019-06-26T02:44:17.581Z,23.7
2019-06-26T02:47:23.735Z,23.7
2019-06-26T02:50:29.954Z,23.7
2019-06-26T02:53:36.141Z,23.7
2019-06-26T02:56:42.358Z,23.7
2019-06-26T02:59:48.559Z,23.7
2019-06-26T03:02:54.995Z,23.6
2019-06-26T03:06:01.303Z,23.7
2019-06-26T03:09:07.694Z,23.6
2019-06-26T03:12:13.963Z,23.7
2019-06-26T03:15:20.243Z,23.7
2019-06-26T03:18:26.476Z,23.7
2019-06-26T03:21:32.694Z,23.7
2019-06-26T03:24:38.886Z,23.7
2019-06-26T03:27:45.078Z,23.7
2019-06-26T03:30:51.267Z,23.8
2019-06-26T03:33:57.506Z,23.8
2019-06-26T03:37:03.636Z,23.9
2019-06-26T03:40:09.839Z,23.9
2019-06-26T03:43:16.138Z,24
2019-06-26T03:46:22.445Z,24
2019-06-26T03:49:28.591Z,24.1
2019-06-26T03:52:34.778Z,24.1
2019-06-26T03:55:40.923Z,24.2
2019-06-26T03:58:47.046Z,24.2
2019-06-26T04:01:53.281Z,24.3
2019-06-26T04:04:59.525Z,24.3
2019-06-26T04:08:05.968Z,24.3
2019-06-26T04:11:12.283Z,24.3
2019-06-26T04:14:18.662Z,24.3
2019-06-26T04:17:24.954Z,24.3
2019-06-26T04:20:31.217Z,24.3
2019-06-26T04:23:37.394Z,24.4
2019-06-26T04:26:43.587Z,24.3
2019-06-26T04:29:49.791Z,24.4
2019-06-26T04:32:56.130Z,24.4
2019-06-26T04:36:02.353Z,24.4
2019-06-26T04:39:08.662Z,24.5
2019-06-26T04:42:14.857Z,24.5
2019-06-26T04:45:21.048Z,24.5
2019-06-26T04:48:27.300Z,24.7
2019-06-26T04:51:33.505Z,24.7
2019-06-26T04:54:39.745Z,24.7
2019-06-26T04:57:46.092Z,24.7
2019-06-26T05:00:52.408Z,24.7
2019-06-26T05:03:58.593Z,24.8
2019-06-26T05:07:04.825Z,24.8
2019-06-26T05:10:10.992Z,24.8
2019-06-26T05:13:17.158Z,24.8
2019-06-26T05:16:26.389Z,24.9
2019-06-26T05:19:32.591Z,24.9
2019-06-26T05:22:38.791Z,25
2019-06-26T05:25:45.006Z,25
2019-06-26T05:28:51.224Z,25
2019-06-26T05:31:57.403Z,25
2019-06-26T05:35:06.442Z,25
2019-06-26T05:38:12.654Z,25.1
2019-06-26T05:41:18.912Z,25.1
2019-06-26T05:44:25.202Z,25.2
2019-06-26T05:47:31.438Z,25.3
2019-06-26T05:50:37.606Z,25.3
2019-06-26T05:53:43.889Z,25.3
2019-06-26T05:56:50.097Z,25.3
2019-06-26T05:59:56.342Z,25.4
2019-06-26T06:03:02.706Z,25.3
2019-06-26T06:06:08.911Z,25.3
2019-06-26T06:09:15.057Z,25.3
2019-06-26T06:12:21.308Z,25.3
2019-06-26T06:15:27.755Z,25.3
2019-06-26T06:18:34.308Z,25.2
2019-06-26T06:21:40.480Z,25.3
2019-06-26T06:24:46.661Z,25.3
2019-06-26T06:27:52.890Z,25.3
2019-06-26T06:30:59.201Z,25.3
2019-06-26T06:34:06.220Z,25.3
2019-06-26T06:37:12.440Z,25.3
2019-06-26T06:40:18.635Z,25.3
2019-06-26T06:43:24.874Z,25.3
2019-06-26T06:46:31.088Z,25.3
2019-06-26T06:49:37.325Z,25.3
2019-06-26T06:52:43.631Z,25.3
2019-06-26T06:55:49.789Z,25.3
2019-06-26T06:58:56.101Z,25.3
2019-06-26T07:02:02.325Z,25.3
2019-06-26T07:05:08.651Z,25.3
2019-06-26T07:08:15.298Z,25.3
2019-06-26T07:11:21.428Z,25.3
2019-06-26T07:14:27.685Z,25.3
2019-06-26T07:17:33.856Z,25.3
2019-06-26T07:20:40.103Z,25.3
2019-06-26T07:23:50.135Z,25.3
2019-06-26T07:26:56.303Z,25.4
2019-06-26T07:30:02.716Z,25.4
2019-06-26T07:33:08.957Z,25.4
2019-06-26T07:36:15.169Z,25.5
2019-06-26T07:39:21.372Z,25.5
2019-06-26T07:42:27.577Z,25.5
2019-06-26T07:45:33.925Z,25.5
2019-06-26T07:48:40.113Z,25.5
2019-06-26T07:51:46.323Z,25.5
2019-06-26T07:54:52.776Z,25.6
2019-06-26T07:57:58.962Z,25.5
2019-06-26T08:01:05.410Z,25.6
2019-06-26T08:04:11.761Z,25.6
2019-06-26T08:07:17.958Z,25.6
2019-06-26T08:10:24.230Z,25.6
2019-06-26T08:13:30.617Z,25.6
2019-06-26T08:16:36.875Z,25.6
2019-06-26T08:19:43.376Z,25.7
2019-06-26T08:22:49.617Z,25.7
2019-06-26T08:25:55.830Z,25.7
2019-06-26T08:29:01.994Z,25.7
2019-06-26T08:32:08.199Z,25.7
2019-06-26T08:35:14.357Z,25.8
2019-06-26T08:38:20.657Z,25.8
2019-06-26T08:41:29.725Z,25.8
2019-06-26T08:44:35.906Z,25.8
2019-06-26T08:47:42.122Z,25.8
2019-06-26T08:50:48.397Z,25.8
2019-06-26T08:53:54.646Z,25.8
2019-06-26T08:57:00.809Z,25.9
2019-06-26T09:00:06.930Z,25.9
2019-06-26T09:03:13.210Z,26
2019-06-26T09:06:19.304Z,26
2019-06-26T09:09:25.502Z,26
2019-06-26T09:12:31.764Z,26.1
2019-06-26T09:15:38.079Z,26.1
2019-06-26T09:18:44.508Z,26.1
2019-06-26T09:21:50.768Z,26.1
2019-06-26T09:24:57.035Z,26.2
2019-06-26T09:28:03.290Z,26.2
2019-06-26T09:31:09.518Z,26.3
2019-06-26T09:34:15.706Z,26.3
2019-06-26T09:37:21.968Z,26.4
2019-06-26T09:40:31.522Z,26.4
2019-06-26T09:43:37.994Z,26.4
2019-06-26T09:46:44.277Z,26.4
2019-06-26T09:49:50.475Z,26.5
2019-06-26T09:52:56.722Z,26.4
2019-06-26T09:56:02.915Z,26.5
2019-06-26T09:59:09.133Z,26.5
2019-06-26T10:02:15.398Z,26.5
2019-06-26T10:05:21.661Z,26.5
2019-06-26T10:08:27.976Z,26.5
2019-06-26T10:11:34.147Z,26.6
2019-06-26T10:14:46.913Z,26.6
2019-06-26T10:17:53.986Z,26.6
2019-06-26T10:21:00.171Z,26.6
2019-06-26T10:24:06.695Z,26.7
2019-06-26T10:27:12.961Z,26.7
2019-06-26T10:30:19.280Z,26.7
2019-06-26T10:33:25.647Z,26.8
2019-06-26T10:36:31.915Z,26.8
2019-06-26T10:39:38.084Z,26.7
2019-06-26T10:42:44.266Z,26.8
2019-06-26T10:45:50.464Z,26.8
2019-06-26T10:48:56.559Z,26.8
2019-06-26T10:52:02.788Z,26.8
2019-06-26T10:55:08.965Z,26.9
2019-06-26T10:58:15.234Z,27
2019-06-26T11:01:21.424Z,27
2019-06-26T11:04:27.569Z,27
2019-06-26T11:07:36.425Z,27
2019-06-26T11:10:42.740Z,27
2019-06-26T11:13:52.779Z,27
2019-06-26T11:16:59.320Z,26.9
2019-06-26T11:20:06.195Z,27
2019-06-26T11:23:12.308Z,27
2019-06-26T11:26:21.195Z,26.9
2019-06-26T11:29:27.760Z,27
2019-06-26T11:32:34.072Z,27
2019-06-26T11:35:40.649Z,27
2019-06-26T11:38:46.926Z,27
2019-06-26T11:41:53.128Z,27.1
2019-06-26T11:45:01.397Z,27.1
2019-06-26T11:48:12.254Z,27
2019-06-26T11:51:19.299Z,27
2019-06-26T11:54:25.701Z,27.1
2019-06-26T11:57:31.914Z,27.1
2019-06-26T12:00:41.385Z,27
2019-06-26T12:03:47.954Z,27
2019-06-26T12:06:54.368Z,27
2019-06-26T12:10:03.373Z,27.1
2019-06-26T12:13:10.495Z,27.1
2019-06-26T12:16:16.666Z,27
2019-06-26T12:19:23.600Z,27
2019-06-26T12:22:29.877Z,27
2019-06-26T12:25:36.036Z,27.1
2019-06-26T12:28:42.490Z,27.1
2019-06-26T12:31:48.768Z,27
2019-06-26T12:34:54.923Z,27
2019-06-26T12:38:01.273Z,27
2019-06-26T12:41:07.540Z,27
2019-06-26T12:44:13.860Z,27
2019-06-26T12:47:22.727Z,27.1
2019-06-26T12:50:35.049Z,27
2019-06-26T12:53:44.336Z,27
2019-06-26T12:56:50.618Z,27.1
2019-06-26T12:59:57.989Z,27.1
2019-06-26T13:03:04.460Z,27.1
2019-06-26T13:06:10.691Z,27.1
2019-06-26T13:09:16.925Z,27.1
2019-06-26T13:12:23.093Z,27.1
2019-06-26T13:15:29.238Z,27.1
2019-06-26T13:18:35.414Z,27.1
2019-06-26T13:21:41.583Z,27.2
2019-06-26T13:24:47.759Z,27.2
2019-06-26T13:27:53.941Z,27.2
2019-06-26T13:31:00.184Z,27.1
2019-06-26T13:34:06.600Z,27.1
2019-06-26T13:37:12.840Z,27.1
2019-06-26T13:40:19.107Z,27.1
2019-06-26T13:43:25.221Z,27.1
2019-06-26T13:46:31.454Z,27
2019-06-26T13:49:37.726Z,27
2019-06-26T13:52:43.947Z,27
2019-06-26T13:55:50.271Z,27
2019-06-26T13:58:56.473Z,27
2019-06-26T14:02:02.800Z,26.9
2019-06-26T14:05:09.030Z,27
2019-06-26T14:08:15.347Z,26.9
2019-06-26T14:11:21.544Z,26.9
2019-06-26T14:14:37.802Z,26.9
2019-06-26T14:18:03.456Z,26.9
2019-06-26T14:21:24.471Z,26.8
2019-06-26T14:24:32.581Z,26.8
2019-06-26T14:27:38.775Z,26.8
2019-06-26T14:30:44.967Z,26.8
2019-06-26T14:49:36.850Z,26.6
2019-06-26T14:52:45.839Z,26.5
2019-06-26T14:55:52.018Z,26.6
2019-06-26T14:58:58.456Z,26.6
2019-06-26T15:02:04.731Z,26.5
2019-06-26T15:05:10.991Z,26.5
2019-06-26T15:08:17.262Z,26.5
2019-06-26T15:11:23.586Z,26.5
2019-06-26T15:14:29.784Z,26.5
2019-06-26T15:17:36.036Z,26.5
2019-06-26T15:20:45.016Z,26.5
2019-06-26T15:23:51.136Z,26.5
2019-06-26T15:26:57.438Z,26.5
2019-06-26T15:30:03.648Z,26.5
2019-06-26T15:33:10.008Z,26.5
2019-06-26T15:36:16.222Z,26.5
2019-06-26T15:39:22.378Z,26.5
2019-06-26T15:42:28.825Z,26.5
2019-06-26T15:45:34.990Z,26.5
2019-06-26T15:48:41.249Z,26.5
2019-06-26T15:51:47.521Z,26.5
2019-06-26T15:54:53.717Z,26.4
2019-06-26T15:57:59.974Z,26.4
2019-06-26T16:01:06.165Z,26.4
2019-06-26T16:04:12.491Z,26.4
2019-06-26T16:07:18.808Z,26.4
2019-06-26T16:10:24.971Z,26.3
2019-06-26T16:13:31.455Z,26.3
2019-06-26T16:16:37.642Z,26.4
2019-06-26T16:19:43.836Z,26.3
2019-06-26T16:22:50.170Z,26.3
2019-06-26T16:25:56.398Z,26.3
2019-06-26T16:29:02.617Z,26.3
2019-06-26T16:32:08.798Z,26.3
2019-06-26T16:35:17.757Z,26.3
2019-06-26T16:38:24.036Z,26.3
2019-06-26T16:41:30.224Z,26.3
2019-06-26T16:44:36.411Z,26.2
2019-06-26T16:47:42.676Z,26.2
2019-06-26T16:50:48.834Z,26.2
2019-06-26T16:53:55.007Z,26.2
2019-06-26T16:57:01.240Z,26.2
2019-06-26T17:00:09.741Z,26.2
2019-06-26T17:03:16.277Z,26.2
2019-06-26T17:06:22.523Z,26.2
2019-06-26T17:09:28.709Z,26.2
2019-06-26T17:12:35.019Z,26.2
2019-06-26T17:15:41.174Z,26.2
2019-06-26T17:18:47.470Z,26.2
2019-06-26T17:21:53.687Z,26.1
2019-06-26T17:25:00.014Z,26.1
2019-06-26T17:28:06.568Z,26.1
2019-06-26T17:31:12.730Z,26.1
2019-06-26T17:34:18.950Z,26.1
2019-06-26T17:37:25.229Z,26.1
2019-06-26T17:40:31.483Z,26.1
2019-06-26T17:43:40.520Z,26.1
2019-06-26T17:46:46.620Z,26.1
2019-06-26T17:49:52.890Z,26.1
2019-06-26T17:52:59.112Z,26.1
2019-06-26T17:56:05.378Z,26.1
2019-06-26T17:59:11.703Z,26.1
2019-06-26T18:02:17.995Z,26.1
2019-06-26T18:05:24.177Z,26.1
2019-06-26T18:08:30.516Z,26.1
2019-06-26T18:11:36.761Z,26.1
2019-06-26T18:14:43.451Z,26.1
2019-06-26T18:17:49.747Z,26
2019-06-26T18:20:56.006Z,26
2019-06-26T18:24:02.129Z,26
2019-06-26T18:27:08.554Z,26
2019-06-26T18:30:14.751Z,25.9
2019-06-26T18:33:23.584Z,25.9
2019-06-26T18:36:33.308Z,25.9
2019-06-26T18:39:39.860Z,25.8
2019-06-26T18:42:45.980Z,25.8
2019-06-26T18:45:52.161Z,25.8
2019-06-26T18:48:58.395Z,25.7
2019-06-26T18:52:07.712Z,25.7
2019-06-26T18:55:16.561Z,25.7
2019-06-26T18:58:22.724Z,25.7
2019-06-26T19:01:28.996Z,25.7
2019-06-26T19:04:35.230Z,25.6
2019-06-26T19:07:41.456Z,25.6
2019-06-26T19:10:47.762Z,25.6
2019-06-26T19:13:53.849Z,25.5
2019-06-26T19:17:00.028Z,25.5
2019-06-26T19:20:06.288Z,25.5
2019-06-26T19:23:12.520Z,25.5
2019-06-26T19:26:18.926Z,25.5
2019-06-26T19:29:25.230Z,25.4
2019-06-26T19:32:31.597Z,25.4
2019-06-26T19:35:41.406Z,25.4
2019-06-26T19:38:47.685Z,25.4
2019-06-26T19:41:53.859Z,25.3
2019-06-26T19:45:00.089Z,25.3
2019-06-26T19:48:06.779Z,25.3
2019-06-26T19:51:12.986Z,25.3
2019-06-26T19:54:26.864Z,25.2
2019-06-26T19:57:37.573Z,25.2
2019-06-26T20:00:43.917Z,25.2
2019-06-26T20:03:53.961Z,25.2
2019-06-26T20:14:49.787Z,25.1
2019-06-26T20:18:54.143Z,25.1
2019-06-26T20:27:27.109Z,25.1
2019-06-26T20:33:32.133Z,25.1
2019-06-26T20:36:50.182Z,25
2019-06-26T20:40:37.391Z,25
2019-06-26T20:48:52.745Z,25
2019-06-26T20:52:38.727Z,25
2019-06-26T20:56:05.289Z,24.9
2019-06-26T20:59:55.926Z,24.9
2019-06-26T21:03:51.641Z,24.9
2019-06-26T21:07:11.406Z,24.9
2019-06-26T21:12:41.132Z,24.9
2019-06-26T21:17:03.178Z,24.9
2019-06-26T21:20:56.593Z,24.8
2019-06-26T21:24:42.113Z,24.9
2019-06-26T21:29:29.919Z,24.8
2019-06-26T21:33:10.331Z,24.7
2019-06-26T21:37:44.054Z,24.8
2019-06-26T21:41:14.050Z,24.7
2019-06-26T21:44:29.434Z,24.7
2019-06-26T21:49:01.926Z,24.7
2019-06-26T21:52:35.086Z,24.7
2019-06-26T21:55:41.525Z,24.6
2019-06-26T21:58:47.929Z,24.7
2019-06-26T22:01:54.201Z,24.6
2019-06-26T22:05:00.482Z,24.7
2019-06-26T22:08:06.699Z,24.7
2019-06-26T22:11:13.008Z,24.6
2019-06-26T22:14:19.199Z,24.6
2019-06-26T22:17:25.392Z,24.6
2019-06-26T22:20:31.551Z,24.6
2019-06-26T22:23:37.701Z,24.6
2019-06-26T22:26:43.889Z,24.5
2019-06-26T22:29:50.144Z,24.5
2019-06-26T22:32:56.410Z,24.5
2019-06-26T22:36:02.744Z,24.5
2019-06-26T22:39:08.997Z,24.5
2019-06-26T22:42:15.152Z,24.5
2019-06-26T22:45:21.288Z,24.4
2019-06-26T22:48:27.469Z,24.4
2019-06-26T22:51:33.608Z,24.5
2019-06-26T22:54:39.832Z,24.4
2019-06-26T22:57:46.045Z,24.4
2019-06-26T23:00:52.269Z,24.4
2019-06-26T23:03:58.681Z,24.3
2019-06-26T23:07:04.830Z,24.3
2019-06-26T23:10:11.046Z,24.3
2019-06-26T23:13:17.162Z,24.3
2019-06-26T23:16:23.446Z,24.4
2019-06-26T23:19:29.535Z,24.3
2019-06-26T23:22:35.769Z,24.3
2019-06-26T23:25:41.987Z,24.2
2019-06-26T23:28:48.198Z,24.3
2019-06-26T23:31:54.403Z,24.2
2019-06-26T23:35:00.698Z,24.2
2019-06-26T23:38:06.886Z,24.3
2019-06-26T23:41:13.083Z,24.3
2019-06-26T23:44:22.904Z,24.1
2019-06-26T23:47:29.109Z,24.2
2019-06-26T23:50:35.220Z,24.2
2019-06-26T23:53:41.387Z,24.1
2019-06-26T23:56:47.741Z,24.1
2019-06-26T23:59:54.010Z,24
